Dearborn, MO

7:54 AM CDT on March 27, 2017 (GMT -0500)
Clinton Estates | | Change Station

Elev 975 ft 39.47 °N, 94.58 °W | Updated 4 minutes ago

Rain
Rain
45.7 °F
Feels Like 43 °F
N
5.0
Wind Variable Wind from NNE
Gusts 10.0 mph

Today
High -- | Low -- °F
--% Chance of Precip.
Yesterday
High -- | Low -- °F
Precip. -- in
Pressure 29.88 in
Visibility 1.5 miles
Clouds Scattered Clouds 500 ft
Scattered Clouds 900 ft
Overcast 2200 ft
Windchill 43 °F
Dew Point 45 °F
Humidity 96%
Rainfall 0.20 in
Snow Depth Not available.
7:10 AM 7:38 PM
Waning Crescent, 0% visible
SPECI KMCI 271244Z 02009KT 1 1/2SM -RA BR SCT005 SCT009 OVC022 08/07 A2988 RMK AO2 SFC VIS 4 P0005 T00780072
Pressure 29.88 in
Visibility 1.5 miles
Clouds Scattered Clouds 500 ft
Scattered Clouds 900 ft
Overcast 2200 ft
Windchill 43 °F
Dew Point 45 °F
Humidity 96%
Rainfall 0.20 in
Snow Depth Not available.
7:10 AM 7:38 PM
Waning Crescent, 0% visible
SPECI KMCI 271244Z 02009KT 1 1/2SM -RA BR SCT005 SCT009 OVC022 08/07 A2988 RMK AO2 SFC VIS 4 P0005 T00780072

Get Severe Weather Alerts

Thanks for signing up!

Be on the lookout for a verification email in your inbox.

You'll start receiving the daily forecast at 8 AM.

×

10-Day Weather Forecast

Almanac

Astronomy

Mar. 27, 2017 Rise Set
Actual Time
Civil Twilight
Nautical Twilight
Astronomical Twilight
Moon
Length of Visible Light
Length of Day
Tomorrow will be .
, % of the Moon is Illuminated

Today's Extremes

State Highs State Lows

Community

WunderPhotos

Upload Photos

1,962,540 photos uploaded!

WunderBlog® & News

Nearby

Air Quality

  Air Quality AQ Index Pollutant
Not available.

Snow Depth

Station Depth Elevation

Earthquake Activity

City Distance Mag. Time & Date
Minimum magnitude displayed is 2.5.

Earthquake Activity

City Distance Mag. Time & Date
Minimum magnitude displayed is 2.5.

Coastal Water Temperatures

Place Temperature

Stations

Nearby Weather Stations

Station Location Temp. Windchill Dew Point Humidity Wind Precip. Elev Updated Type
                   

Watches & Warnings

There are currently no watches in effect.